Time;durP1;ratioP1;P1;durP2;ratioP2;P2;SDS_P1;SDS_P2;PMS_P1;PMS_P2;Temp;Humidity;BMP_temperature;BMP_pressure;BME280_temperature;BME280_humidity;BME280_pressure;Samples;Min_cycle;Max_cycle;Signal;HPM_P1;HPM_P2
2021/04/13 00:01:24;;;;;;;9.43;3.47;;;;;;;1.56;80.46;100425.52;1727619;80;21681;-72
2021/04/13 00:04:16;;;;;;;8.55;3.40;;;;;;;1.55;80.36;100425.95;1739788;81;21386;-74
2021/04/13 00:06:51;;;;;;;7.50;3.35;;;;;;;1.50;80.32;100428.09;1765236;80;21158;-73
2021/04/13 00:09:22;;;;;;;10.88;3.90;;;;;;;1.49;80.37;100427.23;1741114;80;21141;-73
2021/04/13 00:12:00;;;;;;;9.68;4.03;;;;;;;1.44;80.32;100428.94;1758529;80;21208;-73
2021/04/13 00:14:32;;;;;;;9.40;3.60;;;;;;;1.40;80.32;100428.52;1756715;79;21196;-75
2021/04/13 00:17:04;;;;;;;6.17;3.15;;;;;;;1.36;80.27;100425.49;1761625;79;21620;-74
2021/04/13 00:19:44;;;;;;;7.80;3.08;;;;;;;1.33;80.34;100428.06;1772359;80;21317;-74
2021/04/13 00:22:12;;;;;;;8.60;3.80;;;;;;;1.30;80.38;100426.78;1736569;81;22301;-74
2021/04/13 00:24:41;;;;;;;9.23;3.50;;;;;;;1.29;80.42;100426.36;1740681;81;21202;-74
2021/04/13 00:27:13;;;;;;;7.37;3.17;;;;;;;1.26;80.39;100423.75;1717137;81;21193;-74
2021/04/13 00:29:40;;;;;;;8.18;3.70;;;;;;;1.23;80.38;100425.92;1739817;80;21264;-73
2021/04/13 00:32:08;;;;;;;9.55;3.85;;;;;;;1.21;80.42;100422.91;1734171;81;26664;-74
2021/04/13 00:34:50;;;;;;;10.58;3.15;;;;;;;1.24;80.53;100422.91;1711124;81;21128;-73
2021/04/13 00:37:31;;;;;;;11.15;3.62;;;;;;;1.27;80.55;100422.92;1736227;81;21173;-74
2021/04/13 00:40:24;;;;;;;8.98;3.75;;;;;;;1.22;80.30;100422.05;1737594;81;23324;-75
2021/04/13 00:42:54;;;;;;;10.08;3.37;;;;;;;1.17;80.24;100428.88;1746329;80;21321;-73
2021/04/13 00:45:25;;;;;;;9.60;3.75;;;;;;;1.17;80.47;100426.31;1751468;80;21265;-74
2021/04/13 00:47:54;;;;;;;6.67;3.47;;;;;;;1.21;80.51;100420.34;1763842;79;21119;-74
2021/04/13 00:50:45;;;;;;;9.75;3.17;;;;;;;1.24;80.52;100419.91;1764741;79;21124;-73
2021/04/13 00:53:20;;;;;;;8.25;3.98;;;;;;;1.29;80.53;100418.64;1764368;80;21143;-73
2021/04/13 00:55:55;;;;;;;11.63;3.60;;;;;;;1.32;80.52;100423.79;1751625;79;21237;-73
2021/04/13 00:58:48;;;;;;;7.30;3.40;;;;;;;1.34;80.43;100416.91;1740014;80;21067;-73
2021/04/13 01:01:34;;;;;;;10.05;4.20;;;;;;;1.34;80.46;100422.05;1746223;80;21246;-74
2021/04/13 01:04:13;;;;;;;7.72;3.60;;;;;;;1.30;80.39;100418.62;1722659;81;21211;-74
2021/04/13 01:06:40;;;;;;;14.40;3.30;;;;;;;1.32;80.45;100422.50;1763489;80;21277;-73
2021/04/13 01:09:32;;;;;;;7.95;3.17;;;;;;;1.33;80.45;100426.78;1759657;78;21197;-73
2021/04/13 01:12:10;;;;;;;7.80;3.08;;;;;;;1.33;80.40;100429.35;1648724;85;21704;-72
2021/04/13 01:14:37;;;;;;;9.93;3.87;;;;;;;1.31;80.39;100425.91;1667155;84;21298;-74
2021/04/13 01:17:08;;;;;;;8.55;2.80;;;;;;;1.30;80.42;100423.77;1632366;86;21686;-74
2021/04/13 01:20:13;;;;;;;7.30;2.85;;;;;;;1.26;80.33;100429.78;1634700;86;21155;-74
2021/04/13 01:23:00;;;;;;;9.23;3.30;;;;;;;1.19;80.28;100427.19;1630029;86;21258;-73
2021/04/13 01:25:30;;;;;;;6.47;2.60;;;;;;;1.17;80.41;100432.74;1633239;86;21670;-73
2021/04/13 01:28:02;;;;;;;8.35;2.98;;;;;;;1.14;80.38;100427.16;1640120;85;21226;-73
2021/04/13 01:30:46;;;;;;;6.70;2.72;;;;;;;1.10;80.39;100423.73;1639663;86;21294;-72
2021/04/13 01:33:20;;;;;;;6.35;2.67;;;;;;;1.05;80.42;100429.72;1638009;85;21170;-73
2021/04/13 01:35:54;;;;;;;14.93;2.77;;;;;;;1.05;80.50;100437.00;1635767;85;21230;-74
2021/04/13 01:38:27;;;;;;;7.90;2.80;;;;;;;1.04;80.50;100425.01;1639480;85;21206;-73
2021/04/13 01:41:22;;;;;;;12.13;3.00;;;;;;;1.04;80.50;100428.87;1652506;85;21154;-73
2021/04/13 01:43:41;;;;;;;6.45;2.05;;;;;;;1.03;80.47;100432.27;1609253;87;21666;-73
2021/04/13 01:46:11;;;;;;;5.97;2.42;;;;;;;1.00;80.44;100420.69;1625703;86;21668;-74
2021/04/13 01:48:41;;;;;;;8.93;2.83;;;;;;;0.98;80.45;100422.42;1651827;86;21225;-73
2021/04/13 01:51:11;;;;;;;6.22;2.67;;;;;;;0.96;80.48;100425.41;1649130;85;22015;-72
2021/04/13 01:53:43;;;;;;;7.53;2.37;;;;;;;0.97;80.54;100426.27;1630020;86;21195;-72
2021/04/13 01:56:21;;;;;;;5.12;2.10;;;;;;;0.98;80.56;100435.28;1652463;85;21234;-73
2021/04/13 01:59:02;;;;;;;10.55;2.72;;;;;;;0.98;80.49;100426.28;1634281;85;21259;-73
2021/04/13 02:01:38;;;;;;;8.25;2.90;;;;;;;0.95;80.40;100426.24;1632631;86;21863;-73
2021/04/13 02:04:25;;;;;;;6.62;2.50;;;;;;;0.92;80.47;100413.38;1626352;85;21306;-74
2021/04/13 02:10:06;;;;;;;6.37;2.05;;;;;;;1.00;80.65;100419.41;1823657;77;23467;-73
2021/04/13 02:12:37;;;;;;;7.72;2.77;;;;;;;0.97;80.58;100421.97;1790223;78;21203;-74
2021/04/13 02:15:41;;;;;;;7.53;2.47;;;;;;;0.95;80.58;100418.53;1800007;78;21190;-74
2021/04/13 02:18:16;;;;;;;10.58;2.40;;;;;;;0.95;80.63;100423.67;1800529;78;21652;-73
2021/04/13 02:20:47;;;;;;;8.05;2.35;;;;;;;0.97;80.66;100414.26;1808661;78;21674;-74
2021/04/13 02:23:18;;;;;;;9.53;3.12;;;;;;;0.96;80.64;100422.84;1797642;78;21215;-74
2021/04/13 02:25:48;;;;;;;8.58;2.47;;;;;;;0.96;80.64;100417.70;1798192;77;21242;-74
2021/04/13 02:28:17;;;;;;;9.08;2.70;;;;;;;0.97;80.65;100414.26;1801753;78;22160;-74
2021/04/13 02:30:47;;;;;;;6.40;2.33;;;;;;;0.98;80.64;100423.71;1793673;78;21167;-73
2021/04/13 02:33:32;;;;;;;8.13;2.80;;;;;;;0.98;80.67;100422.42;1801715;78;21020;-74
2021/04/13 02:36:15;;;;;;;4.47;2.60;;;;;;;1.01;80.66;100421.55;1788625;78;21099;-72
2021/04/13 02:38:51;;;;;;;7.90;2.70;;;;;;;1.00;80.66;100421.98;1797392;77;21171;-74
2021/04/13 02:41:32;;;;;;;7.42;3.02;;;;;;;1.02;80.72;100415.14;1802426;78;21259;-73
2021/04/13 02:44:07;;;;;;;5.67;2.08;;;;;;;1.03;80.67;100413.42;1747609;80;21161;-73
2021/04/13 02:46:37;;;;;;;7.85;2.80;;;;;;;1.02;80.67;100408.70;1734298;81;21245;-74
2021/04/13 02:49:17;;;;;;;7.62;2.70;;;;;;;1.04;80.71;100413.44;1735765;81;21243;-73
2021/04/13 02:51:49;;;;;;;5.47;2.08;;;;;;;1.06;80.68;100417.28;1759661;79;21124;-72
2021/04/13 02:54:27;;;;;;;14.13;3.40;;;;;;;1.05;80.65;100421.57;1760812;80;21681;-73
2021/04/13 02:56:59;;;;;;;5.78;2.27;;;;;;;1.05;80.67;100417.71;1755590;80;21010;-74
2021/04/13 02:59:33;;;;;;;7.28;2.65;;;;;;;1.04;80.69;100418.58;1757321;80;22140;-74
2021/04/13 03:02:37;;;;;;;5.15;2.60;;;;;;;1.01;80.62;100412.14;1757613;80;21211;-73
2021/04/13 03:05:07;;;;;;;4.75;2.30;;;;;;;1.00;80.71;100415.55;1738689;80;21208;-73
2021/04/13 03:07:38;;;;;;;13.48;2.30;;;;;;;1.00;80.77;100411.69;1739672;81;22179;-73
2021/04/13 03:10:13;;;;;;;11.20;2.60;;;;;;;1.01;80.75;100410.86;1740169;81;21160;-74
2021/04/13 03:12:45;;;;;;;9.50;2.83;;;;;;;1.01;80.70;100416.41;1744716;81;21757;-73
2021/04/13 03:15:23;;;;;;;6.22;2.72;;;;;;;1.01;80.72;100413.43;1742472;81;21559;-73
2021/04/13 03:17:54;;;;;;;8.03;2.37;;;;;;;1.02;80.74;100412.56;1743855;81;21227;-72
2021/04/13 03:20:26;;;;;;;12.88;2.77;;;;;;;1.05;80.76;100424.14;1742700;81;21206;-73
2021/04/13 03:22:57;;;;;;;7.40;2.42;;;;;;;1.08;80.78;100419.00;1742358;80;21981;-73
2021/04/13 03:25:32;;;;;;;6.25;2.55;;;;;;;1.11;80.79;100419.44;1711027;81;21130;-74
2021/04/13 03:28:04;;;;;;;8.43;3.87;;;;;;;1.11;80.69;100420.30;1746184;81;22290;-74
2021/04/13 03:30:36;;;;;;;12.60;6.50;;;;;;;1.15;80.76;100430.59;1741323;81;21201;-74
2021/04/13 03:33:23;;;;;;;16.77;7.35;;;;;;;1.17;80.76;100432.74;1746597;81;21832;-74
2021/04/13 03:35:51;;;;;;;;;;;;;;;1.17;80.69;100431.45;1751157;81;21126;-72
2021/04/13 03:38:22;;;;;;;17.73;6.87;;;;;;;1.17;80.71;100434.03;1749726;80;20294;-72
2021/04/13 03:40:51;;;;;;;12.53;5.58;;;;;;;1.17;80.70;100431.45;1725052;81;21199;-72
2021/04/13 03:43:25;;;;;;;5.70;2.77;;;;;;;1.18;80.72;100431.48;1740357;81;21236;-74
2021/04/13 03:46:00;;;;;;;5.85;2.25;;;;;;;1.17;80.68;100427.16;1744784;81;21153;-73
2021/04/13 03:48:31;;;;;;;6.05;2.45;;;;;;;1.18;80.70;100434.05;1739738;81;21114;-73
2021/04/13 03:51:12;;;;;;;7.35;2.65;;;;;;;1.18;80.65;100433.20;1746238;81;21247;-74
2021/04/13 03:53:44;;;;;;;8.33;2.70;;;;;;;1.17;80.66;100432.31;1741576;81;21193;-74
2021/04/13 03:56:15;;;;;;;6.78;2.75;;;;;;;1.18;80.62;100438.34;1743442;81;21232;-74
2021/04/13 04:01:37;;;;;;;7.45;2.83;;;;;;;1.17;80.67;100441.75;1681211;83;21187;-72
2021/04/13 04:04:06;;;;;;;9.38;2.52;;;;;;;1.18;80.63;100440.91;1683193;84;29040;-72
2021/04/13 04:06:56;;;;;;;6.25;2.50;;;;;;;1.19;80.63;100437.47;1684288;85;21623;-77
2021/04/13 04:09:33;;;;;;;6.87;2.72;;;;;;;1.22;80.68;100441.34;1686858;83;21549;-77
2021/04/13 04:12:17;;;;;;;7.85;2.60;;;;;;;1.21;80.60;100433.20;1683517;83;21218;-73
2021/04/13 04:15:04;;;;;;;10.35;2.98;;;;;;;1.22;80.63;100440.05;1682749;83;21210;-74
2021/04/13 04:17:48;;;;;;;10.13;4.37;;;;;;;1.28;80.68;100445.20;1782564;77;28014;-72
2021/04/13 04:20:16;;;;;;;11.57;4.53;;;;;;;1.29;80.48;100445.22;1772997;80;21057;-72
2021/04/13 04:22:54;;;;;;;6.60;3.10;;;;;;;1.34;80.52;100438.78;1771385;80;21716;-74
2021/04/13 04:25:27;;;;;;;6.78;2.70;;;;;;;1.38;80.58;100444.37;1716978;82;21124;-73
2021/04/13 04:27:56;;;;;;;5.50;3.00;;;;;;;1.39;80.56;100438.36;1717196;82;21202;-74
2021/04/13 04:30:35;;;;;;;8.80;3.17;;;;;;;1.42;80.49;100443.51;1713935;82;21103;-74
2021/04/13 04:33:04;;;;;;;9.13;3.00;;;;;;;1.43;80.56;100437.53;1711797;82;21785;-75
2021/04/13 04:35:42;;;;;;;4.53;2.77;;;;;;;1.48;80.63;100429.36;1718616;82;22347;-75
2021/04/13 04:38:24;;;;;;;;;;;;;;;1.56;80.67;100436.66;1716217;82;21648;-75
2021/04/13 04:41:02;;;;;;;11.00;2.83;;;;;;;1.63;80.55;100439.27;1718108;82;20177;-76
2021/04/13 04:46:42;;;;;;;7.15;2.80;;;;;;;1.79;80.62;100438.39;1823825;77;22274;-74
2021/04/13 04:49:16;;;;;;;7.47;3.05;;;;;;;1.84;80.59;100441.83;1800571;78;21025;-74
2021/04/13 04:51:50;;;;;;;7.28;3.27;;;;;;;1.91;80.51;100442.70;1803929;78;22366;-75
2021/04/13 04:54:17;;;;;;;6.28;2.75;;;;;;;1.97;80.53;100446.12;1794648;78;21063;-74
2021/04/13 04:56:44;;;;;;;5.45;2.62;;;;;;;2.11;80.63;100450.41;1798738;78;21613;-74
2021/04/13 04:59:11;;;;;;;11.33;3.72;;;;;;;2.25;80.58;100447.37;1800000;78;21550;-74
2021/04/13 05:01:38;;;;;;;7.45;4.00;;;;;;;2.36;80.48;100453.80;1795686;78;21064;-75
2021/04/13 05:04:05;;;;;;;;;;;;;;;2.45;80.38;100459.78;1800566;78;22214;-75
2021/04/13 05:06:33;;;;;;;4.75;2.90;;;;;;;2.49;80.03;100454.62;1796363;78;20943;-75
2021/04/13 05:09:00;;;;;;;7.45;2.75;;;;;;;2.48;80.13;100463.22;1796926;78;21578;-73
2021/04/13 05:11:28;;;;;;;4.28;3.00;;;;;;;2.54;80.30;100463.20;1798729;78;21076;-74
2021/04/13 05:13:54;;;;;;;;;;;;;;;2.65;80.18;100461.45;1806071;78;21139;-74
2021/04/13 05:16:23;;;;;;;5.95;2.75;;;;;;;2.70;80.14;100462.30;1798797;78;21208;-73
2021/04/13 05:18:50;;;;;;;10.63;2.87;;;;;;;2.74;80.02;100462.70;1800831;78;21633;-72
2021/04/13 05:21:18;;;;;;;4.60;2.40;;;;;;;2.71;79.67;100460.14;1795338;78;21231;-74
2021/04/13 05:23:45;;;;;;;;;;;;;;;2.69;79.79;100459.30;1797005;78;21150;-74
2021/04/13 05:26:12;;;;;;;5.80;2.70;;;;;;;2.69;79.77;100463.17;1793707;78;20499;-74
2021/04/13 05:28:39;;;;;;;6.50;2.98;;;;;;;2.68;79.76;100461.44;1800069;78;21423;-73
2021/04/13 05:31:06;;;;;;;4.37;2.35;;;;;;;2.75;80.05;100463.15;1796867;78;21024;-73
2021/04/13 05:33:34;;;;;;;8.33;3.45;;;;;;;2.84;79.85;100469.55;1800066;78;21604;-74
2021/04/13 05:36:03;;;;;;;5.75;3.02;;;;;;;2.90;79.80;100473.39;1798523;77;25741;-72
2021/04/13 05:38:35;;;;;;;10.78;4.10;;;;;;;3.06;79.98;100470.77;1739536;80;21184;-73
2021/04/13 05:41:05;;;;;;;7.10;4.25;;;;;;;3.24;79.95;100473.23;1743299;81;22169;-76
2021/04/13 05:43:32;;;;;;;8.55;4.00;;;;;;;3.44;79.97;100473.55;1745461;80;21261;-73
2021/04/13 05:46:00;;;;;;;;;;;;;;;3.61;79.88;100474.30;1753131;80;21186;-73
2021/04/13 05:48:29;;;;;;;8.68;3.30;;;;;;;3.75;79.54;100473.80;1750762;80;20225;-73
2021/04/13 05:50:57;;;;;;;7.25;3.60;;;;;;;3.79;79.57;100471.59;1755058;80;21211;-74
2021/04/13 05:53:25;;;;;;;9.03;4.80;;;;;;;4.24;80.49;100473.37;1753028;79;21634;-73
2021/04/13 05:55:54;;;;;;;15.53;6.70;;;;;;;5.08;79.71;100471.58;1754340;80;28412;-73
2021/04/13 05:58:25;;;;;;;14.55;7.33;;;;;;;5.44;79.07;100473.27;1748629;80;21127;-73
2021/04/13 06:00:55;;;;;;;14.05;6.62;;;;;;;5.84;79.16;100467.03;1747867;80;21035;-73
2021/04/13 06:03:25;;;;;;;17.40;6.55;;;;;;;6.39;79.05;100470.47;1772273;78;21191;-73
2021/04/13 06:05:56;;;;;;;14.03;5.62;;;;;;;6.81;78.63;100465.80;1753899;81;21660;-75
2021/04/13 06:08:25;;;;;;;14.53;5.28;;;;;;;7.64;79.08;100463.53;1739988;80;21206;-75
2021/04/13 06:10:53;;;;;;;8.23;4.25;;;;;;;8.42;78.41;100465.97;1749536;80;21752;-74
2021/04/13 06:13:22;;;;;;;8.88;4.05;;;;;;;9.17;77.00;100464.72;1764522;80;21274;-75
2021/04/13 06:15:50;;;;;;;6.47;3.52;;;;;;;9.72;77.12;100465.22;1771551;79;22236;-75
2021/04/13 06:18:18;;;;;;;6.90;2.98;;;;;;;10.36;76.21;100463.11;1762778;79;21227;-75
2021/04/13 06:20:45;;;;;;;5.87;2.20;;;;;;;10.49;75.68;100463.55;1732871;81;21582;-75
2021/04/13 06:23:12;;;;;;;5.92;2.55;;;;;;;10.68;76.24;100462.45;1732426;81;21239;-75
2021/04/13 06:25:39;;;;;;;4.67;2.50;;;;;;;10.98;76.02;100463.95;1727212;81;21268;-76
2021/04/13 06:28:06;;;;;;;8.28;2.90;;;;;;;10.98;75.54;100466.56;1726875;81;21290;-75
2021/04/13 06:30:33;;;;;;;;;;;;;;;11.05;74.75;100465.88;1732622;81;21933;-76
2021/04/13 06:33:01;;;;;;;5.40;2.42;;;;;;;10.77;73.61;100466.49;1736042;80;20294;-75
2021/04/13 06:35:28;;;;;;;5.03;2.33;;;;;;;10.34;74.38;100466.25;1750592;80;21239;-75
2021/04/13 06:37:57;;;;;;;;;;;;;;;10.12;74.06;100469.16;1747260;81;21232;-75
2021/04/13 06:40:57;;;;;;;5.55;2.42;;;;;;;9.60;73.75;100460.80;1762883;80;20280;-76
2021/04/13 06:44:02;;;;;;;6.05;2.20;;;;;;;9.42;75.18;100466.59;1763177;79;22382;-75
2021/04/13 06:46:55;;;;;;;4.12;1.82;;;;;;;9.45;74.98;100461.28;1760185;79;21737;-75
2021/04/13 06:50:04;;;;;;;4.97;1.77;;;;;;;9.58;75.31;100467.83;1725763;81;21302;-75
2021/04/13 06:52:57;;;;;;;4.20;1.90;;;;;;;9.76;75.54;100470.75;1718646;81;21877;-75
2021/04/13 06:56:12;;;;;;;4.33;1.67;;;;;;;10.02;74.87;100462.92;1815549;77;22228;-73
2021/04/13 06:59:17;;;;;;;4.97;2.27;;;;;;;9.92;74.08;100468.06;1791773;78;22344;-75
2021/04/13 07:01:59;;;;;;;3.47;1.90;;;;;;;9.69;72.92;100464.02;1821843;77;22723;-74
2021/04/13 07:04:52;;;;;;;5.60;1.80;;;;;;;8.90;71.02;100468.13;1790514;78;21187;-70
2021/04/13 07:07:55;;;;;;;2.80;1.10;;;;;;;8.29;72.04;100481.89;1796372;78;21201;-71
2021/04/13 07:10:29;;;;;;;4.28;1.50;;;;;;;7.85;71.93;100483.83;1791642;77;21819;-71
2021/04/13 07:13:37;;;;;;;2.35;1.32;;;;;;;7.50;72.30;100491.59;1793118;78;21645;-72
2021/04/13 07:16:22;;;;;;;3.22;1.80;;;;;;;7.14;72.77;100495.38;1746150;79;21230;-71
2021/04/13 07:18:59;;;;;;;2.40;0.90;;;;;;;7.10;73.34;100496.34;1744705;79;21226;-72
2021/04/13 07:21:35;;;;;;;2.40;0.90;;;;;;;7.05;73.12;100497.73;1746595;79;21412;-72
2021/04/13 07:24:24;;;;;;;2.60;1.02;;;;;;;7.17;73.51;100496.64;1745989;80;21305;-71
2021/04/13 07:27:14;;;;;;;2.17;0.80;;;;;;;7.44;73.62;100489.13;1736747;80;21240;-70
2021/04/13 07:30:02;;;;;;;2.77;1.00;;;;;;;7.55;73.16;100493.64;1688409;83;21251;-72
2021/04/13 07:32:28;;;;;;;3.77;1.10;;;;;;;7.51;73.01;100492.02;1686489;83;21508;-70
2021/04/13 07:34:59;;;;;;;4.15;1.30;;;;;;;7.20;70.64;100482.29;1688405;83;21256;-72
2021/04/13 07:37:37;;;;;;;4.72;1.00;;;;;;;6.97;71.93;100498.77;1686855;82;21370;-73
2021/04/13 07:40:13;;;;;;;2.62;1.20;;;;;;;6.99;72.45;100500.90;1689603;83;21238;-71
2021/04/13 07:42:49;;;;;;;3.42;1.00;;;;;;;6.99;72.04;100493.11;1691002;83;22723;-72
2021/04/13 07:45:53;;;;;;;2.83;1.12;;;;;;;7.09;72.28;100503.73;1647034;84;21261;-72
2021/04/13 07:48:37;;;;;;;2.08;0.95;;;;;;;7.06;72.02;100506.40;1641334;86;21766;-72
2021/04/13 07:51:27;;;;;;;2.02;1.00;;;;;;;7.04;71.57;100500.38;1641132;85;22364;-72
2021/04/13 07:54:43;;;;;;;2.27;1.10;;;;;;;6.95;71.44;100500.97;1662935;84;21193;-71
2021/04/13 07:57:40;;;;;;;1.90;0.88;;;;;;;6.94;71.04;100501.83;1663146;84;21646;-71
2021/04/13 08:00:15;;;;;;;4.45;1.12;;;;;;;6.98;70.44;100506.55;1668361;84;21222;-73
2021/04/13 08:02:47;;;;;;;3.65;1.17;;;;;;;6.83;70.48;100507.67;1666200;84;21478;-72
2021/04/13 08:05:19;;;;;;;3.25;1.37;;;;;;;6.84;70.87;100505.96;1638950;84;21576;-72
2021/04/13 08:08:07;;;;;;;3.00;1.42;;;;;;;7.11;71.64;100504.53;1659677;84;21247;-72
2021/04/13 08:10:40;;;;;;;3.60;1.40;;;;;;;7.44;71.38;100508.61;1662195;84;21269;-71
2021/04/13 08:13:11;;;;;;;2.25;1.02;;;;;;;7.79;71.46;100509.98;1662472;84;21292;-72
2021/04/13 08:15:49;;;;;;;2.17;1.20;;;;;;;8.10;71.16;100497.55;1662839;85;21269;-72
2021/04/13 08:18:41;;;;;;;2.22;1.40;;;;;;;8.22;70.31;100505.03;1664090;84;21830;-72
2021/04/13 08:21:25;;;;;;;3.00;1.27;;;;;;;8.05;70.18;100505.91;1664596;84;21713;-72
2021/04/13 08:23:54;;;;;;;2.10;1.90;;;;;;;7.51;67.41;100514.10;1665348;84;21272;-72
2021/04/13 08:26:44;;;;;;;3.67;1.70;;;;;;;7.20;69.21;100513.88;1665958;85;21221;-72
2021/04/13 08:29:25;;;;;;;2.12;1.40;;;;;;;7.35;70.21;100506.62;1684523;82;22683;-71
2021/04/13 08:35:25;;;;;;;3.50;1.77;;;;;;;8.02;70.08;100513.78;1692675;83;21641;-72
2021/04/13 08:38:32;;;;;;;4.33;1.50;;;;;;;8.47;70.58;100499.25;1710624;82;21281;-72
2021/04/13 08:41:19;;;;;;;4.30;1.25;;;;;;;8.71;69.82;100499.02;1698677;82;21205;-75
2021/04/13 08:43:55;;;;;;;2.98;1.17;;;;;;;8.54;68.56;100502.08;1673728;83;21386;-72
2021/04/13 08:46:36;;;;;;;2.17;1.30;;;;;;;8.60;69.36;100508.45;1683186;83;21291;-71
2021/04/13 08:49:25;;;;;;;2.72;1.25;;;;;;;8.67;68.78;100507.82;1652934;84;21756;-72
2021/04/13 08:52:16;;;;;;;1.47;1.00;;;;;;;8.77;69.40;100503.23;1667161;83;22385;-73
2021/04/13 08:54:48;;;;;;;1.80;1.00;;;;;;;8.98;69.13;100496.56;1670405;84;21305;-72
2021/04/13 08:57:37;;;;;;;3.50;0.72;;;;;;;9.05;68.17;100500.72;1626861;86;21246;-72
2021/04/13 09:00:34;;;;;;;2.70;1.15;;;;;;;8.70;66.37;100495.56;1663431;85;21241;-72
2021/04/13 09:03:16;;;;;;;2.98;0.95;;;;;;;8.51;65.63;100500.86;1820430;77;23908;-71
2021/04/13 09:05:48;;;;;;;2.62;1.00;;;;;;;8.30;67.53;100504.40;1794367;78;21384;-71
2021/04/13 09:08:49;;;;;;;3.05;0.70;;;;;;;8.58;68.36;100512.83;1794760;78;22191;-72
2021/04/13 09:11:28;;;;;;;1.80;1.20;;;;;;;8.69;66.56;100499.08;1791527;78;21076;-72
2021/04/13 09:14:09;;;;;;;1.12;0.60;;;;;;;8.65;67.48;100501.80;1790585;78;21652;-72
2021/04/13 09:16:40;;;;;;;0.98;0.60;;;;;;;8.68;66.15;100497.38;1725790;80;21230;-71
2021/04/13 09:19:22;;;;;;;1.77;0.93;;;;;;;8.61;66.67;100503.64;1731840;80;22490;-72
2021/04/13 09:21:52;;;;;;;1.55;1.10;;;;;;;8.78;66.91;100499.73;1728682;80;21266;-70
2021/04/13 09:24:39;;;;;;;3.05;2.10;;;;;;;8.88;65.82;100511.61;1735626;80;22452;-70
2021/04/13 09:27:37;;;;;;;3.92;1.22;;;;;;;8.91;66.51;100504.55;1735382;80;21258;-72
2021/04/13 09:30:27;;;;;;;3.72;0.98;;;;;;;8.99;65.72;100499.14;1730045;80;22245;-73
2021/04/13 09:33:21;;;;;;;2.95;0.68;;;;;;;8.82;64.67;100503.94;1731150;80;22412;-73
2021/04/13 09:35:53;;;;;;;0.75;0.40;;;;;;;8.65;64.03;100506.55;1691251;83;21404;-73
2021/04/13 09:38:46;;;;;;;1.85;0.95;;;;;;;8.69;63.92;100500.83;1735238;80;21274;-73
2021/04/13 09:41:48;;;;;;;0.70;0.42;;;;;;;8.73;65.01;100502.44;1736056;80;21237;-73
2021/04/13 09:44:40;;;;;;;1.75;0.70;;;;;;;8.82;64.16;100494.41;1728590;80;21319;-74
2021/04/13 09:47:21;;;;;;;1.95;0.60;;;;;;;8.86;63.98;100497.77;1730041;80;21256;-74
2021/04/13 09:50:06;;;;;;;1.30;0.50;;;;;;;8.96;64.23;100493.56;1732765;80;21449;-75
2021/04/13 09:53:01;;;;;;;1.12;0.80;;;;;;;9.16;63.90;100503.41;1732659;80;21808;-74
2021/04/13 09:55:56;;;;;;;4.62;0.55;;;;;;;8.89;63.17;100495.92;1727288;81;22307;-76
2021/04/13 09:58:49;;;;;;;1.72;0.70;;;;;;;8.70;61.52;100498.17;1690498;82;21306;-75
2021/04/13 10:01:56;;;;;;;2.42;0.80;;;;;;;8.40;62.45;100496.38;1686857;82;22194;-75
2021/04/13 10:04:42;;;;;;;2.45;2.25;;;;;;;8.55;60.76;100493.39;1689050;83;21413;-76
2021/04/13 10:07:51;;;;;;;1.37;0.68;;;;;;;8.80;63.08;100490.12;1671946;83;21303;-76
2021/04/13 10:10:20;;;;;;;1.02;0.62;;;;;;;9.18;61.73;100495.08;1665111;84;21345;-75
2021/04/13 10:13:44;;;;;;;1.55;0.80;;;;;;;9.38;63.03;100491.91;1687849;83;21365;-74
2021/04/13 10:16:25;;;;;;;1.87;0.88;;;;;;;9.71;63.00;100492.20;1691873;81;21315;-77
2021/04/13 10:19:16;;;;;;;2.70;1.37;;;;;;;8.87;54.21;100498.16;1683557;82;21222;-76
2021/04/13 10:22:00;;;;;;;5.10;1.05;;;;;;;8.54;59.95;100495.56;1698839;82;21582;-77
2021/04/13 10:25:05;;;;;;;2.83;1.27;;;;;;;8.20;56.92;100499.46;1696679;82;21262;-76
2021/04/13 10:28:15;;;;;;;3.75;1.20;;;;;;;7.52;56.03;100502.81;1694606;82;21897;-77
2021/04/13 10:31:20;;;;;;;2.05;1.10;;;;;;;7.49;59.22;100501.13;1695974;82;21275;-75
2021/04/13 10:34:15;;;;;;;3.08;1.15;;;;;;;7.64;58.49;100502.52;1747713;80;21524;-75
2021/04/13 10:37:07;;;;;;;3.98;1.70;;;;;;;7.36;57.48;100495.33;1739628;80;21247;-76
2021/04/13 10:40:11;;;;;;;5.15;1.60;;;;;;;7.52;59.59;100489.81;1739599;80;21666;-76
2021/04/13 10:42:50;;;;;;;1.62;1.20;;;;;;;8.07;59.06;100491.13;1707660;81;21283;-75
2021/04/13 10:46:11;;;;;;;2.92;1.77;;;;;;;8.20;58.94;100482.09;1734052;81;21258;-76
2021/04/13 10:49:05;;;;;;;2.95;1.22;;;;;;;8.11;58.59;100481.04;1711582;81;22574;-77
2021/04/13 10:52:24;;;;;;;3.35;1.10;;;;;;;8.23;59.42;100487.25;1730745;81;21686;-75
2021/04/13 10:55:38;;;;;;;4.58;1.60;;;;;;;8.36;58.49;100481.72;1732568;81;21288;-75
2021/04/13 10:58:16;;;;;;;4.42;1.77;;;;;;;8.26;57.81;100471.56;1728934;81;21226;-75
2021/04/13 11:01:13;;;;;;;2.77;1.50;;;;;;;7.81;52.57;100478.73;1727893;82;21920;-74
2021/04/13 11:04:10;;;;;;;;;;;;;;;7.70;57.15;100484.21;1728870;81;21383;-77
2021/04/13 11:07:09;;;;;;;;;;;;;;;7.65;56.98;100486.05;1708192;81;20752;-76
2021/04/13 11:09:53;;;;;;;3.62;1.70;;;;;;;7.70;57.34;100475.11;1706812;81;20312;-76
2021/04/13 11:13:05;;;;;;;4.42;1.47;;;;;;;7.91;58.65;100474.18;1711775;81;21186;-76
2021/04/13 11:16:01;;;;;;;1.37;0.98;;;;;;;7.94;56.86;100480.61;1636365;86;21292;-76
2021/04/13 11:19:07;;;;;;;2.35;1.40;;;;;;;7.63;56.83;100480.03;1631354;86;21297;-76
2021/04/13 11:22:31;;;;;;;3.60;1.12;;;;;;;7.69;56.62;100490.28;1864411;75;23324;-75
2021/04/13 11:25:35;;;;;;;3.08;1.20;;;;;;;7.61;57.26;100484.41;1836037;77;21238;-75
2021/04/13 11:28:28;;;;;;;2.65;1.02;;;;;;;7.62;58.31;100486.13;1826688;77;21427;-75
2021/04/13 11:31:25;;;;;;;1.92;1.40;;;;;;;7.77;57.81;100485.76;1729709;81;21254;-76
2021/04/13 11:34:24;;;;;;;3.50;1.35;;;;;;;7.63;57.89;100476.13;1727544;81;21301;-76
2021/04/13 11:37:09;;;;;;;5.60;2.17;;;;;;;7.73;57.87;100476.76;1759967;79;21242;-76
2021/04/13 11:40:04;;;;;;;3.85;1.10;;;;;;;7.73;58.61;100469.84;1752856;79;21793;-76
2021/04/13 11:42:37;;;;;;;4.85;1.30;;;;;;;8.21;59.09;100472.58;1752325;79;22845;-78
2021/04/13 11:45:24;;;;;;;3.80;1.30;;;;;;;8.63;58.47;100464.11;1758637;79;23796;-76
2021/04/13 11:48:29;;;;;;;2.77;1.17;;;;;;;8.79;58.54;100470.17;1756110;80;21303;-78
2021/04/13 11:54:02;;;;;;;2.17;1.30;;;;;;;9.14;56.77;100464.81;1636522;86;21212;-73
2021/04/13 11:56:33;;;;;;;3.45;1.22;;;;;;;8.96;58.12;100467.94;1592832;87;21290;-77
2021/04/13 11:59:22;;;;;;;3.70;1.32;;;;;;;8.72;57.78;100475.56;1602444;87;21297;-76
2021/04/13 12:02:00;;;;;;;1.77;1.10;;;;;;;8.50;57.58;100487.45;1627150;86;21291;-77
2021/04/13 12:04:45;;;;;;;3.93;1.53;;;;;;;8.48;58.17;100468.41;1805141;77;27939;-75
2021/04/13 12:07:12;;;;;;;;;;;;;;;8.69;58.18;100478.25;1748987;80;21116;-77
2021/04/13 12:10:02;;;;;;;2.47;1.20;;;;;;;8.63;54.25;100491.44;1730612;81;21482;-76
2021/04/13 12:12:37;;;;;;;4.22;1.30;;;;;;;8.40;57.17;100482.06;1744273;80;21138;-75
2021/04/13 12:15:10;;;;;;;1.60;0.98;;;;;;;8.38;57.39;100477.34;1746712;80;21187;-75
2021/04/13 12:17:49;;;;;;;2.98;1.55;;;;;;;8.18;56.77;100481.30;1765336;80;21064;-75
2021/04/13 12:23:15;;;;;;;4.55;1.05;;;;;;;8.37;57.36;100478.22;1743301;80;21337;-74
2021/04/13 12:25:56;;;;;;;2.70;1.10;;;;;;;8.37;57.09;100480.81;1762536;80;21213;-75
2021/04/13 12:28:43;;;;;;;1.02;0.70;;;;;;;8.39;57.22;100473.86;1762120;79;21508;-76
2021/04/13 12:31:23;;;;;;;3.67;1.60;;;;;;;8.46;56.60;100475.42;1747320;81;21222;-76
2021/04/13 12:34:01;;;;;;;2.77;0.98;;;;;;;8.49;57.44;100476.19;1743132;81;21731;-76
2021/04/13 12:36:48;;;;;;;2.10;0.98;;;;;;;8.59;57.30;100468.97;1743392;81;21221;-77
2021/04/13 12:39:45;;;;;;;8.43;1.20;;;;;;;8.69;57.25;100466.53;1760323;79;21974;-74
2021/04/13 12:42:37;;;;;;;;;;;;;;;8.64;56.86;100463.20;1760015;80;21029;-75
2021/04/13 12:45:23;;;;;;;4.33;1.25;;;;;;;8.17;55.20;100470.47;1754703;80;20347;-75
2021/04/13 12:47:55;;;;;;;3.20;1.00;;;;;;;7.78;55.47;100473.16;1678939;82;22170;-75
2021/04/13 12:50:32;;;;;;;3.92;1.37;;;;;;;7.85;56.21;100472.13;1754997;79;21374;-75
2021/04/13 12:53:01;;;;;;;1.75;0.98;;;;;;;7.91;56.47;100475.48;1757240;79;21240;-76
2021/04/13 12:55:30;;;;;;;6.58;1.47;;;;;;;7.70;54.43;100479.02;1754740;79;21271;-76